Time;durP1;ratioP1;P1;durP2;ratioP2;P2;SDS_P1;SDS_P2;PMS_P1;PMS_P2;Temp;Humidity;BMP_temperature;BMP_pressure;BME280_temperature;BME280_humidity;BME280_pressure;Samples;Min_cycle;Max_cycle;Signal;HPM_P1;HPM_P2
2021/01/28 00:01:09;;;;;;;4.90;2.78;;;3.90;99.90;;;;;;4947734;29;20153;-91
2021/01/28 00:03:36;;;;;;;5.30;3.17;;;3.90;99.90;;;;;;4927587;29;20062;-89
2021/01/28 00:06:03;;;;;;;4.78;2.60;;;3.90;99.90;;;;;;4951289;29;20137;-91
2021/01/28 00:08:29;;;;;;;5.28;3.10;;;3.90;99.90;;;;;;4946650;29;20051;-89
2021/01/28 00:10:56;;;;;;;5.72;2.92;;;4.00;99.90;;;;;;4941452;29;20051;-90
2021/01/28 00:13:24;;;;;;;4.30;2.58;;;4.00;99.90;;;;;;4951817;29;20051;-89
2021/01/28 00:15:51;;;;;;;4.82;2.97;;;3.90;99.90;;;;;;4917554;29;20051;-89
2021/01/28 00:18:18;;;;;;;6.03;2.88;;;3.80;99.90;;;;;;4923747;29;20051;-88
2021/01/28 00:20:48;;;;;;;5.43;3.28;;;3.80;99.90;;;;;;4922884;29;20126;-88
2021/01/28 00:23:16;;;;;;;5.53;3.08;;;3.90;99.90;;;;;;4938304;29;20481;-88
2021/01/28 00:25:44;;;;;;;6.57;3.05;;;3.90;99.90;;;;;;4950965;29;20485;-88
2021/01/28 00:28:15;;;;;;;5.30;2.97;;;3.80;99.90;;;;;;4919675;29;20078;-89
2021/01/28 00:30:45;;;;;;;4.95;2.95;;;3.90;99.90;;;;;;4922765;29;20062;-89
2021/01/28 00:33:14;;;;;;;5.55;2.90;;;4.00;99.90;;;;;;4936251;29;20134;-90
2021/01/28 00:35:43;;;;;;;5.13;2.90;;;4.10;99.90;;;;;;4950935;29;20492;-91
2021/01/28 00:38:14;;;;;;;5.50;3.20;;;3.90;99.90;;;;;;4943303;29;20051;-90
2021/01/28 00:40:41;;;;;;;6.15;3.15;;;4.00;99.90;;;;;;4943552;29;20491;-90
2021/01/28 00:43:07;;;;;;;5.00;2.88;;;4.00;99.90;;;;;;4921358;29;20055;-91
2021/01/28 00:45:35;;;;;;;5.82;3.10;;;3.80;99.90;;;;;;4947454;29;20090;-90
2021/01/28 00:48:03;;;;;;;5.57;2.97;;;3.90;99.90;;;;;;4958174;29;20625;-90
2021/01/28 00:50:33;;;;;;;5.53;3.00;;;3.90;99.90;;;;;;4944817;29;20154;-88
2021/01/28 00:53:00;;;;;;;5.55;3.13;;;3.90;99.90;;;;;;4924985;29;20051;-88
2021/01/28 00:55:27;;;;;;;5.18;2.88;;;3.90;99.90;;;;;;4950638;29;20138;-88
2021/01/28 00:57:54;;;;;;;5.50;2.90;;;3.90;99.90;;;;;;4919858;29;20065;-88
2021/01/28 01:00:26;;;;;;;5.93;3.20;;;4.00;99.90;;;;;;4935225;29;20205;-88
2021/01/28 01:02:53;;;;;;;5.20;2.70;;;3.90;99.90;;;;;;4938653;29;20056;-88
2021/01/28 01:05:22;;;;;;;5.07;2.78;;;4.00;99.90;;;;;;4936179;29;20074;-89
2021/01/28 01:07:50;;;;;;;4.72;2.60;;;4.00;99.90;;;;;;4935249;29;20123;-89
2021/01/28 01:10:28;;;;;;;5.05;2.95;;;4.00;99.90;;;;;;4942172;29;20553;-89
2021/01/28 01:12:56;;;;;;;5.22;2.88;;;4.20;99.90;;;;;;4918690;29;20090;-89
2021/01/28 01:15:23;;;;;;;5.50;3.00;;;4.00;99.90;;;;;;4935917;29;20138;-87
2021/01/28 01:17:50;;;;;;;5.85;2.78;;;4.00;99.90;;;;;;4947423;29;20043;-88
2021/01/28 01:20:19;;;;;;;5.50;3.13;;;4.10;99.90;;;;;;4926643;29;20055;-89
2021/01/28 01:22:46;;;;;;;5.25;3.15;;;4.10;99.90;;;;;;4953114;28;20130;-89
2021/01/28 01:25:14;;;;;;;5.07;2.90;;;4.20;99.90;;;;;;4941812;29;20506;-89
2021/01/28 01:27:41;;;;;;;5.35;2.85;;;4.20;99.90;;;;;;4937792;29;21210;-89
2021/01/28 01:30:10;;;;;;;4.50;2.53;;;4.20;99.90;;;;;;4938624;29;20171;-88
2021/01/28 01:32:36;;;;;;;6.70;2.95;;;4.20;99.90;;;;;;4945643;29;20138;-88
2021/01/28 01:35:06;;;;;;;5.88;2.90;;;4.30;99.90;;;;;;4940962;29;20573;-88
2021/01/28 01:37:33;;;;;;;5.30;3.10;;;4.20;99.90;;;;;;4949014;29;20151;-87
2021/01/28 01:40:01;;;;;;;5.47;3.42;;;4.30;99.90;;;;;;4940725;29;20074;-87
2021/01/28 01:42:28;;;;;;;5.43;3.03;;;4.30;99.90;;;;;;4943350;29;20047;-87
2021/01/28 01:44:54;;;;;;;6.88;3.45;;;4.40;99.90;;;;;;4931977;29;20058;-87
2021/01/28 01:47:43;;;;;;;6.40;3.85;;;4.20;99.90;;;;;;4941050;29;20438;-87
2021/01/28 01:50:44;;;;;;;6.97;3.80;;;4.30;99.90;;;;;;4953784;29;20050;-87
2021/01/28 01:53:17;;;;;;;5.85;3.60;;;4.20;99.90;;;;;;4906434;29;20182;-86
2021/01/28 01:55:50;;;;;;;6.47;3.53;;;4.20;99.90;;;;;;4948487;29;20139;-86
2021/01/28 01:58:29;;;;;;;7.57;3.78;;;4.30;99.90;;;;;;4934504;29;20047;-87
2021/01/28 02:00:55;;;;;;;5.93;3.35;;;4.30;99.90;;;;;;4947975;29;20390;-87
2021/01/28 02:03:22;;;;;;;6.20;3.53;;;4.30;99.90;;;;;;4937171;29;20055;-87
2021/01/28 02:06:06;;;;;;;5.78;3.00;;;4.20;99.90;;;;;;4948289;29;20054;-87
2021/01/28 02:08:33;;;;;;;5.28;3.17;;;4.30;99.90;;;;;;4935134;29;20052;-87
2021/01/28 02:11:05;;;;;;;6.15;3.20;;;4.30;99.90;;;;;;4947930;29;20483;-87
2021/01/28 02:13:32;;;;;;;5.65;3.17;;;4.40;99.90;;;;;;4920237;29;20060;-89
2021/01/28 02:15:59;;;;;;;6.20;3.00;;;4.30;99.90;;;;;;4930192;29;20050;-86
2021/01/28 02:18:26;;;;;;;6.22;3.15;;;4.30;99.90;;;;;;4943893;29;20416;-87
2021/01/28 02:21:26;;;;;;;4.97;2.80;;;4.30;99.90;;;;;;4953303;29;20053;-88
2021/01/28 02:24:28;;;;;;;4.95;2.60;;;4.30;99.90;;;;;;4919356;29;20055;-88
2021/01/28 02:26:57;;;;;;;5.97;2.78;;;4.30;99.90;;;;;;4933636;29;20138;-88
2021/01/28 02:29:26;;;;;;;5.25;2.50;;;4.40;99.90;;;;;;4916027;29;20131;-87
2021/01/28 02:31:55;;;;;;;4.93;2.58;;;4.40;99.90;;;;;;4914877;29;20142;-87
2021/01/28 02:34:23;;;;;;;5.18;2.88;;;4.40;99.90;;;;;;4924408;29;20138;-87
2021/01/28 02:36:53;;;;;;;5.22;2.67;;;4.50;99.90;;;;;;4921579;29;20048;-87
2021/01/28 02:39:23;;;;;;;4.68;2.42;;;4.40;99.90;;;;;;4919978;29;20052;-87
2021/01/28 02:41:59;;;;;;;4.70;2.38;;;4.50;99.90;;;;;;4927659;29;20516;-88
2021/01/28 02:44:26;;;;;;;4.50;2.58;;;4.50;99.90;;;;;;4926371;29;20063;-87
2021/01/28 02:46:52;;;;;;;4.75;2.40;;;4.50;99.90;;;;;;4924904;29;20142;-86
2021/01/28 02:49:20;;;;;;;5.43;2.28;;;4.50;99.90;;;;;;4934113;29;20059;-86
2021/01/28 02:51:46;;;;;;;4.90;2.35;;;4.50;99.90;;;;;;4921740;29;20047;-86
2021/01/28 02:54:13;;;;;;;6.10;2.55;;;4.50;99.90;;;;;;4929573;29;20134;-87
2021/01/28 02:56:40;;;;;;;5.55;2.50;;;4.50;99.90;;;;;;4929869;29;20078;-87
2021/01/28 02:59:08;;;;;;;5.40;2.58;;;4.50;99.90;;;;;;4922418;29;20154;-87
2021/01/28 03:01:37;;;;;;;4.47;2.53;;;4.50;99.90;;;;;;4926915;29;20047;-87
2021/01/28 03:04:04;;;;;;;4.47;2.50;;;4.60;99.90;;;;;;4937516;29;20134;-86
2021/01/28 03:06:31;;;;;;;4.30;2.10;;;4.60;99.90;;;;;;4936992;29;20146;-88
2021/01/28 03:08:58;;;;;;;3.90;2.20;;;4.60;99.90;;;;;;4931360;29;20143;-87
2021/01/28 03:11:25;;;;;;;4.57;2.40;;;4.60;99.90;;;;;;4936186;29;20406;-86
2021/01/28 03:13:52;;;;;;;4.30;1.95;;;4.60;99.90;;;;;;4933771;29;20062;-87
2021/01/28 03:16:19;;;;;;;4.85;2.30;;;4.60;99.90;;;;;;4920083;29;20139;-87
2021/01/28 03:18:46;;;;;;;4.07;2.10;;;4.70;99.90;;;;;;4931076;29;20134;-87
2021/01/28 03:21:13;;;;;;;4.20;1.92;;;4.60;99.90;;;;;;4923129;29;20083;-87
2021/01/28 03:23:40;;;;;;;3.83;1.80;;;4.70;99.90;;;;;;4922226;29;20060;-87
2021/01/28 03:26:07;;;;;;;3.90;1.77;;;4.70;99.90;;;;;;4931372;29;20558;-87
2021/01/28 03:28:34;;;;;;;3.80;1.83;;;4.80;99.90;;;;;;4935321;29;20086;-88
2021/01/28 03:31:01;;;;;;;2.90;1.40;;;4.90;99.90;;;;;;4926226;29;20095;-87
2021/01/28 03:33:28;;;;;;;3.20;1.50;;;4.80;99.90;;;;;;4930531;29;20059;-87
2021/01/28 03:35:55;;;;;;;3.33;1.50;;;4.90;99.90;;;;;;4937427;29;20058;-86
2021/01/28 03:38:22;;;;;;;3.95;1.42;;;4.80;99.90;;;;;;4936805;29;20054;-87
2021/01/28 03:40:49;;;;;;;1.80;0.82;;;5.00;99.90;;;;;;4926012;29;20134;-86
2021/01/28 03:43:16;;;;;;;3.50;0.80;;;5.00;99.90;;;;;;4935151;29;20517;-87
2021/01/28 03:45:42;;;;;;;2.30;0.80;;;5.10;99.90;;;;;;4923682;29;20147;-87
2021/01/28 03:48:09;;;;;;;2.13;0.70;;;5.20;99.90;;;;;;4937372;29;20147;-88
2021/01/28 03:50:38;;;;;;;1.25;0.63;;;5.30;99.90;;;;;;4925697;29;20047;-88
2021/01/28 03:53:05;;;;;;;1.23;0.60;;;5.30;99.90;;;;;;4939846;29;20094;-87
2021/01/28 03:55:32;;;;;;;1.63;0.50;;;5.30;99.90;;;;;;4937590;29;20127;-87
2021/01/28 03:57:59;;;;;;;2.20;0.70;;;5.40;99.90;;;;;;4934575;29;20136;-87
2021/01/28 04:00:28;;;;;;;3.45;1.10;;;5.40;99.90;;;;;;4929049;29;20202;-86
2021/01/28 04:02:55;;;;;;;1.92;0.70;;;5.50;99.90;;;;;;4933933;29;20448;-87
2021/01/28 04:05:22;;;;;;;1.90;0.60;;;5.50;99.90;;;;;;4937393;29;20078;-88
2021/01/28 04:07:50;;;;;;;3.35;0.90;;;5.50;99.90;;;;;;4939601;29;20119;-87
2021/01/28 04:10:21;;;;;;;3.03;0.93;;;5.60;99.90;;;;;;4929859;29;20139;-86
2021/01/28 04:12:48;;;;;;;3.03;1.30;;;5.60;99.90;;;;;;4941371;29;20060;-87
2021/01/28 04:15:16;;;;;;;2.92;1.10;;;5.50;99.90;;;;;;4935081;29;20143;-87
2021/01/28 04:17:43;;;;;;;4.30;1.20;;;5.40;99.90;;;;;;4917622;29;20426;-86
2021/01/28 04:20:12;;;;;;;3.13;1.30;;;5.40;99.90;;;;;;4935375;29;20158;-87
2021/01/28 04:22:39;;;;;;;3.03;1.10;;;5.30;99.90;;;;;;4921043;28;20205;-88
2021/01/28 04:25:09;;;;;;;2.50;1.13;;;5.20;99.90;;;;;;4948046;29;20150;-87
2021/01/28 04:27:36;;;;;;;2.88;1.33;;;5.20;99.90;;;;;;4930175;29;20134;-86
2021/01/28 04:30:08;;;;;;;3.83;1.88;;;5.20;99.90;;;;;;4953623;29;20061;-87
2021/01/28 04:32:35;;;;;;;3.65;1.80;;;5.10;99.90;;;;;;4938750;29;20069;-90
2021/01/28 04:35:01;;;;;;;4.15;2.22;;;5.10;99.90;;;;;;4949158;29;20059;-88
2021/01/28 04:37:28;;;;;;;4.85;2.30;;;5.10;99.90;;;;;;4919303;29;20494;-89
2021/01/28 04:39:55;;;;;;;5.15;2.30;;;5.10;99.90;;;;;;4949283;29;20059;-87
2021/01/28 04:42:32;;;;;;;4.93;2.20;;;5.00;99.90;;;;;;4913948;29;20180;-86
2021/01/28 04:44:59;;;;;;;5.63;2.42;;;5.20;99.90;;;;;;4932168;29;20134;-90
2021/01/28 04:47:25;;;;;;;4.43;2.50;;;5.10;99.90;;;;;;4936699;29;20417;-88
2021/01/28 04:49:55;;;;;;;4.85;2.55;;;5.10;99.90;;;;;;4936828;29;20143;-88
2021/01/28 04:52:24;;;;;;;5.53;2.55;;;5.10;99.90;;;;;;4952635;29;20130;-89
2021/01/28 04:54:53;;;;;;;5.05;2.40;;;5.20;99.90;;;;;;4947521;29;20135;-89
2021/01/28 04:57:21;;;;;;;4.70;2.65;;;5.20;99.90;;;;;;4951859;29;20556;-87
2021/01/28 04:59:53;;;;;;;4.75;2.65;;;5.20;99.90;;;;;;4937358;29;20058;-90
2021/01/28 05:02:23;;;;;;;6.72;2.92;;;5.00;99.90;;;;;;4938906;29;20047;-90
2021/01/28 05:04:54;;;;;;;5.15;2.80;;;5.00;99.90;;;;;;4950420;29;20136;-90
2021/01/28 05:07:26;;;;;;;4.72;2.55;;;4.90;99.90;;;;;;4945565;29;20083;-91
2021/01/28 05:10:13;;;;;;;6.07;3.35;;;4.90;99.90;;;;;;4941700;29;20055;-88
2021/01/28 05:12:40;;;;;;;5.82;3.28;;;4.70;99.90;;;;;;4936567;29;20056;-89
2021/01/28 05:15:16;;;;;;;6.43;3.20;;;4.70;99.90;;;;;;4949912;29;20138;-86
2021/01/28 05:17:56;;;;;;;6.55;3.58;;;4.70;99.90;;;;;;4942019;29;20134;-85
2021/01/28 05:20:24;;;;;;;7.30;4.10;;;4.70;99.90;;;;;;4960590;29;20213;-86
2021/01/28 05:23:02;;;;;;;7.15;4.18;;;4.70;99.90;;;;;;4941022;28;20077;-86
2021/01/28 05:25:40;;;;;;;8.73;4.00;;;4.50;99.90;;;;;;4951546;29;20059;-87
2021/01/28 05:28:32;;;;;;;7.50;4.13;;;4.60;99.90;;;;;;4943863;29;20437;-87
2021/01/28 05:31:00;;;;;;;7.70;4.25;;;4.50;99.90;;;;;;4939358;29;20052;-87
2021/01/28 05:33:36;;;;;;;7.95;4.13;;;4.40;99.90;;;;;;4952373;29;20261;-86
2021/01/28 05:36:16;;;;;;;8.27;4.40;;;4.50;99.90;;;;;;4953929;29;20109;-87
2021/01/28 05:38:46;;;;;;;6.97;3.95;;;4.50;99.90;;;;;;4937064;29;20530;-86
2021/01/28 05:41:26;;;;;;;7.25;4.18;;;4.50;99.90;;;;;;4953962;29;20142;-86
2021/01/28 05:43:53;;;;;;;7.32;4.65;;;4.50;99.90;;;;;;4923074;29;20047;-86
2021/01/28 05:46:24;;;;;;;7.70;4.75;;;4.40;99.90;;;;;;4937011;29;20142;-86
2021/01/28 05:49:06;;;;;;;9.30;5.50;;;4.40;99.90;;;;;;4953945;29;20142;-86
2021/01/28 05:51:39;;;;;;;8.18;5.00;;;4.40;99.90;;;;;;4953865;29;20416;-86
2021/01/28 05:54:09;;;;;;;9.30;5.80;;;4.30;99.90;;;;;;4954089;29;20081;-87
2021/01/28 05:56:56;;;;;;;8.50;5.00;;;4.20;99.90;;;;;;4953607;29;20484;-87
2021/01/28 05:59:34;;;;;;;8.35;4.78;;;4.30;99.90;;;;;;4936865;29;20070;-87
2021/01/28 06:02:33;;;;;;;8.90;5.07;;;4.10;99.90;;;;;;4953971;29;20463;-87
2021/01/28 06:05:12;;;;;;;7.90;4.72;;;4.10;99.90;;;;;;4953449;29;20564;-86
2021/01/28 06:08:01;;;;;;;7.72;4.55;;;4.20;99.90;;;;;;4953517;29;20461;-86
2021/01/28 06:10:57;;;;;;;8.00;4.28;;;4.20;99.90;;;;;;4949751;29;20442;-86
2021/01/28 06:14:08;;;;;;;7.95;4.45;;;4.20;99.90;;;;;;4954117;29;20106;-86
2021/01/28 06:16:41;;;;;;;10.60;5.90;;;4.30;99.90;;;;;;4953924;29;20043;-86
2021/01/28 06:19:56;;;;;;;9.73;6.05;;;4.30;99.90;;;;;;4955661;28;20142;-86
2021/01/28 06:22:43;;;;;;;10.27;5.65;;;4.20;99.90;;;;;;4957740;29;20049;-87
2021/01/28 06:25:40;;;;;;;10.85;6.47;;;4.30;99.90;;;;;;4937311;29;20420;-86
2021/01/28 06:28:44;;;;;;;10.75;6.18;;;4.40;99.90;;;;;;4938159;29;20082;-85
2021/01/28 06:31:26;;;;;;;11.05;6.22;;;4.30;99.90;;;;;;4938037;29;20060;-87
2021/01/28 06:34:22;;;;;;;11.25;6.07;;;4.50;99.90;;;;;;4938178;29;20087;-86
2021/01/28 06:37:28;;;;;;;12.18;6.78;;;4.50;99.90;;;;;;4938227;29;20158;-85
2021/01/28 06:39:57;;;;;;;11.60;7.22;;;4.60;99.90;;;;;;4938228;29;20139;-87
2021/01/28 06:42:30;;;;;;;11.07;6.57;;;4.60;99.90;;;;;;4937027;29;20115;-86
2021/01/28 06:45:04;;;;;;;11.45;6.95;;;4.70;99.90;;;;;;4938002;29;20103;-86
2021/01/28 06:47:38;;;;;;;10.55;6.63;;;4.60;99.90;;;;;;4938241;29;20047;-87
2021/01/28 06:50:16;;;;;;;10.07;6.10;;;4.70;99.90;;;;;;4937876;29;20056;-86
2021/01/28 06:52:59;;;;;;;12.35;6.60;;;4.60;99.90;;;;;;4937888;29;20604;-87
2021/01/28 06:55:37;;;;;;;10.70;6.97;;;4.50;99.90;;;;;;4937828;29;20588;-86
2021/01/28 06:58:49;;;;;;;10.52;6.15;;;4.60;99.90;;;;;;4937735;29;20051;-87
2021/01/28 07:01:23;;;;;;;10.85;7.05;;;4.50;99.90;;;;;;4931993;29;20048;-86
2021/01/28 07:04:11;;;;;;;12.23;6.70;;;4.60;99.90;;;;;;4937650;29;20143;-86
2021/01/28 07:06:45;;;;;;;12.45;6.82;;;4.60;99.90;;;;;;4936836;29;20135;-86
2021/01/28 07:09:24;;;;;;;10.15;6.30;;;4.70;99.90;;;;;;4937944;29;20051;-86
2021/01/28 07:11:55;;;;;;;10.50;6.28;;;4.90;99.90;;;;;;4937842;29;20139;-86
2021/01/28 07:14:22;;;;;;;12.18;6.25;;;4.70;99.90;;;;;;4937631;29;20056;-86
2021/01/28 07:16:56;;;;;;;10.20;6.15;;;4.80;99.90;;;;;;4937458;29;20138;-86
2021/01/28 07:19:28;;;;;;;10.02;6.15;;;4.80;99.90;;;;;;4947240;29;20391;-86
2021/01/28 07:21:56;;;;;;;9.18;5.68;;;4.70;99.90;;;;;;4938109;29;20146;-85
2021/01/28 07:24:35;;;;;;;8.98;5.80;;;4.80;99.90;;;;;;4952075;29;20055;-86
2021/01/28 07:27:05;;;;;;;10.02;6.05;;;4.90;99.90;;;;;;4956536;29;20054;-85
2021/01/28 07:29:55;;;;;;;12.13;6.47;;;4.90;99.90;;;;;;4939898;29;20081;-86
2021/01/28 07:32:57;;;;;;;11.38;6.82;;;5.00;99.90;;;;;;4960340;29;20087;-85
2021/01/28 07:35:43;;;;;;;10.75;6.78;;;5.10;99.90;;;;;;4956194;29;20145;-85
2021/01/28 07:38:49;;;;;;;9.23;5.88;;;5.00;99.90;;;;;;4956540;29;20105;-85
2021/01/28 07:41:55;;;;;;;10.68;5.93;;;5.00;99.90;;;;;;4959891;29;20141;-86
2021/01/28 07:44:48;;;;;;;9.75;5.97;;;5.00;99.90;;;;;;4960249;29;20130;-86
2021/01/28 07:47:57;;;;;;;9.70;6.45;;;5.00;99.90;;;;;;4958268;29;20139;-84
2021/01/28 07:50:48;;;;;;;10.23;6.50;;;5.00;99.90;;;;;;4956156;29;20082;-84
2021/01/28 07:53:49;;;;;;;11.13;6.50;;;5.20;99.90;;;;;;4957096;29;20511;-84
2021/01/28 07:56:57;;;;;;;11.32;6.97;;;5.10;99.90;;;;;;4956604;29;20449;-86
2021/01/28 07:59:42;;;;;;;10.32;6.50;;;5.00;99.90;;;;;;4955969;29;20565;-86
2021/01/28 08:02:23;;;;;;;12.32;7.22;;;4.90;99.90;;;;;;4939056;29;20065;-86
2021/01/28 08:04:58;;;;;;;11.45;7.00;;;4.90;99.90;;;;;;4956033;29;20050;-86
2021/01/28 08:07:29;;;;;;;10.65;6.57;;;4.90;99.90;;;;;;4956160;29;20093;-86
2021/01/28 08:10:00;;;;;;;8.75;5.68;;;4.90;99.90;;;;;;4956344;29;20537;-86
2021/01/28 08:12:31;;;;;;;10.45;6.28;;;5.00;99.90;;;;;;4955799;29;20449;-85
2021/01/28 08:15:01;;;;;;;12.63;6.63;;;5.00;99.90;;;;;;4955685;29;20066;-86
2021/01/28 08:17:32;;;;;;;12.77;6.97;;;5.00;99.90;;;;;;4955257;29;20071;-89
2021/01/28 08:20:31;;;;;;;12.57;7.13;;;5.00;99.90;;;;;;4955998;29;20089;-89
2021/01/28 08:23:03;;;;;;;11.25;7.47;;;5.10;99.90;;;;;;4915944;29;20135;-89
2021/01/28 08:25:35;;;;;;;10.10;6.03;;;5.20;99.90;;;;;;4948773;29;20055;-89
2021/01/28 08:28:13;;;;;;;10.85;6.90;;;5.00;99.90;;;;;;4955593;29;20142;-89
2021/01/28 08:30:41;;;;;;;10.93;7.53;;;5.10;99.90;;;;;;4955499;29;20051;-85
2021/01/28 08:33:14;;;;;;;10.90;7.28;;;5.10;99.90;;;;;;4938055;29;20150;-86
2021/01/28 08:35:45;;;;;;;11.23;7.00;;;5.00;99.90;;;;;;4955118;29;20051;-87
2021/01/28 08:38:25;;;;;;;10.77;6.63;;;5.00;99.90;;;;;;4955159;29;20126;-87
2021/01/28 08:41:16;;;;;;;10.98;6.97;;;4.90;99.90;;;;;;4955336;28;20142;-86
2021/01/28 08:43:44;;;;;;;11.07;6.60;;;4.80;99.90;;;;;;4955132;29;20136;-84
2021/01/28 08:46:19;;;;;;;10.38;7.03;;;4.90;99.90;;;;;;4956324;29;20047;-86
2021/01/28 08:48:46;;;;;;;10.52;6.68;;;4.90;99.90;;;;;;4955389;29;20059;-86
2021/01/28 08:51:22;;;;;;;9.95;6.90;;;4.90;99.90;;;;;;4938139;29;20116;-87
2021/01/28 08:53:58;;;;;;;12.25;7.47;;;4.90;99.90;;;;;;4956272;29;20098;-85
2021/01/28 08:56:29;;;;;;;12.23;7.55;;;5.00;99.90;;;;;;4962700;29;20074;-86
2021/01/28 08:58:56;;;;;;;11.15;7.20;;;5.10;99.90;;;;;;4962436;29;20137;-85
2021/01/28 09:01:23;;;;;;;11.02;7.25;;;5.10;99.90;;;;;;4945144;29;20221;-85
2021/01/28 09:04:02;;;;;;;12.95;7.38;;;5.10;99.90;;;;;;4959285;29;20055;-85
2021/01/28 09:06:29;;;;;;;12.27;7.68;;;5.20;99.90;;;;;;4957455;29;20489;-85
2021/01/28 09:09:15;;;;;;;12.02;7.57;;;5.20;99.90;;;;;;4945790;29;20051;-86
2021/01/28 09:11:42;;;;;;;10.90;6.78;;;5.20;99.90;;;;;;4962833;29;20109;-85
2021/01/28 09:14:32;;;;;;;11.88;6.90;;;5.20;99.90;;;;;;4942624;29;20541;-86
2021/01/28 09:17:03;;;;;;;10.52;6.47;;;5.20;99.90;;;;;;4954260;29;20058;-84
2021/01/28 09:19:34;;;;;;;10.20;6.47;;;5.30;99.90;;;;;;4953785;29;20130;-85
2021/01/28 09:22:04;;;;;;;9.98;6.53;;;5.30;99.90;;;;;;4954284;29;20058;-85
2021/01/28 09:24:37;;;;;;;10.85;6.30;;;5.40;99.90;;;;;;4953525;28;20077;-85
2021/01/28 09:27:29;;;;;;;9.80;6.38;;;5.40;99.90;;;;;;4954095;29;20090;-86
2021/01/28 09:29:56;;;;;;;9.18;5.90;;;5.50;99.90;;;;;;4954477;29;20059;-86
2021/01/28 09:32:33;;;;;;;10.43;6.25;;;5.30;99.90;;;;;;4952489;29;20139;-85
2021/01/28 09:35:12;;;;;;;10.82;6.30;;;5.40;99.90;;;;;;4954036;29;20051;-85
2021/01/28 09:37:40;;;;;;;12.32;6.10;;;5.40;99.90;;;;;;4954198;29;20063;-85
2021/01/28 09:40:29;;;;;;;9.93;6.35;;;5.40;99.90;;;;;;4953790;29;20143;-86
2021/01/28 09:43:27;;;;;;;10.55;6.57;;;5.30;99.90;;;;;;4954317;29;20067;-85
2021/01/28 09:46:15;;;;;;;10.93;6.05;;;5.40;99.90;;;;;;4953713;29;20105;-85
2021/01/28 09:48:42;;;;;;;9.57;5.75;;;5.40;99.90;;;;;;4937212;29;20488;-85
2021/01/28 09:51:11;;;;;;;9.73;6.07;;;5.40;99.90;;;;;;4953734;29;20134;-85
2021/01/28 09:53:38;;;;;;;9.70;5.95;;;5.40;99.90;;;;;;4953446;28;20118;-87
2021/01/28 09:56:05;;;;;;;9.82;5.72;;;5.40;99.90;;;;;;4953776;29;20134;-85
2021/01/28 09:58:33;;;;;;;10.30;6.30;;;5.30;99.90;;;;;;4953611;29;20090;-86
2021/01/28 10:01:00;;;;;;;9.73;5.97;;;5.30;99.90;;;;;;4936582;29;20055;-86
2021/01/28 10:03:26;;;;;;;10.50;6.38;;;5.40;99.90;;;;;;4936473;29;20440;-85
2021/01/28 10:05:53;;;;;;;11.43;6.45;;;5.30;99.90;;;;;;4936456;29;20520;-85
2021/01/28 10:08:20;;;;;;;20.63;11.85;;;5.30;99.90;;;;;;4936769;29;20083;-85
2021/01/28 10:10:46;;;;;;;20.58;12.23;;;5.30;99.90;;;;;;4953436;29;20087;-85
2021/01/28 10:13:16;;;;;;;11.20;6.30;;;5.40;99.90;;;;;;4936940;29;20157;-84
2021/01/28 10:15:44;;;;;;;11.23;6.15;;;5.30;99.90;;;;;;4936464;29;20047;-86
2021/01/28 10:18:10;;;;;;;8.35;5.57;;;5.20;99.90;;;;;;4953259;29;20063;-86
2021/01/28 10:20:40;;;;;;;9.35;5.65;;;5.00;99.90;;;;;;4936214;29;20094;-85
2021/01/28 10:23:07;;;;;;;8.52;4.70;;;5.20;99.90;;;;;;4953785;28;20129;-86
2021/01/28 10:25:33;;;;;;;11.52;5.72;;;5.10;99.90;;;;;;4953611;29;20417;-86
2021/01/28 10:28:00;;;;;;;9.27;4.65;;;5.20;99.90;;;;;;4952965;29;20452;-86
2021/01/28 10:30:27;;;;;;;7.22;4.22;;;5.30;99.90;;;;;;4953862;29;20051;-86
2021/01/28 10:32:57;;;;;;;7.60;4.30;;;5.30;99.90;;;;;;4953380;29;20051;-86
2021/01/28 10:35:27;;;;;;;6.05;3.55;;;5.60;99.90;;;;;;4953285;29;20051;-85
2021/01/28 10:37:54;;;;;;;5.80;2.80;;;5.50;99.90;;;;;;4953277;29;20126;-84
2021/01/28 10:40:24;;;;;;;5.60;2.90;;;5.60;99.90;;;;;;4936203;29;20138;-85
2021/01/28 10:42:54;;;;;;;4.97;2.85;;;5.60;99.90;;;;;;4921399;29;20457;-85
2021/01/28 10:45:25;;;;;;;4.70;2.70;;;5.70;99.90;;;;;;4953122;29;20505;-86
2021/01/28 10:47:52;;;;;;;5.18;2.70;;;5.80;99.90;;;;;;4953274;28;20051;-86
2021/01/28 10:50:22;;;;;;;5.05;2.88;;;5.80;99.90;;;;;;4952938;28;20606;-86
2021/01/28 10:52:49;;;;;;;5.20;2.42;;;6.00;99.90;;;;;;4937430;29;20131;-88
2021/01/28 10:55:17;;;;;;;5.35;3.30;;;6.20;99.90;;;;;;4938465;29;20055;-86
2021/01/28 10:57:44;;;;;;;7.88;3.90;;;6.10;99.90;;;;;;4936245;29;20176;-85
2021/01/28 11:00:12;;;;;;;4.28;2.60;;;6.20;99.90;;;;;;4952743;29;20051;-84
2021/01/28 11:02:39;;;;;;;4.65;2.17;;;6.30;99.90;;;;;;4936132;29;20050;-86
2021/01/28 11:05:08;;;;;;;5.28;2.67;;;6.30;99.90;;;;;;4954433;28;20058;-86
2021/01/28 11:07:36;;;;;;;4.88;2.40;;;6.30;99.90;;;;;;4956750;28;20051;-86
2021/01/28 11:10:04;;;;;;;3.60;1.77;;;6.40;99.90;;;;;;4957389;29;20136;-86
2021/01/28 11:12:31;;;;;;;3.97;1.83;;;6.50;99.90;;;;;;4940299;29;20051;-86
2021/01/28 11:14:58;;;;;;;4.53;2.10;;;6.50;99.90;;;;;;4964853;29;20134;-85
2021/01/28 11:17:25;;;;;;;3.75;1.70;;;6.60;99.90;;;;;;4947757;29;20134;-86
2021/01/28 11:19:51;;;;;;;3.75;1.98;;;6.70;99.90;;;;;;4948471;29;20563;-86
2021/01/28 11:22:18;;;;;;;6.72;1.67;;;6.70;99.90;;;;;;4965787;29;20127;-86
2021/01/28 11:24:46;;;;;;;12.80;5.95;;;6.70;99.90;;;;;;4965707;28;20134;-86
2021/01/28 11:27:13;;;;;;;13.13;5.40;;;6.90;99.90;;;;;;4965425;29;20156;-85
2021/01/28 11:29:41;;;;;;;3.90;1.73;;;6.90;99.90;;;;;;4949758;29;20098;-86
2021/01/28 11:32:08;;;;;;;3.50;1.42;;;7.00;99.90;;;;;;4946075;29;20497;-85
2021/01/28 11:34:35;;;;;;;3.47;1.40;;;6.90;99.90;;;;;;4946247;29;20051;-86
2021/01/28 11:37:02;;;;;;;3.33;1.50;;;7.00;99.90;;;;;;4969965;28;20146;-87
2021/01/28 11:39:29;;;;;;;3.90;1.50;;;7.00;99.90;;;;;;4967881;29;20119;-86
2021/01/28 11:41:56;;;;;;;4.53;1.40;;;7.00;99.90;;;;;;4958284;28;20047;-85
2021/01/28 11:44:23;;;;;;;3.22;1.40;;;7.10;99.90;;;;;;4939844;29;20079;-85
2021/01/28 11:46:50;;;;;;;3.08;1.50;;;7.10;99.90;;;;;;4956450;29;20079;-87
2021/01/28 11:49:17;;;;;;;4.20;1.95;;;7.20;99.90;;;;;;4940014;29;20130;-86
2021/01/28 11:51:43;;;;;;;4.85;1.50;;;7.30;99.90;;;;;;4956690;28;20086;-86
2021/01/28 11:54:10;;;;;;;3.45;1.55;;;7.50;99.90;;;;;;4956663;28;20078;-86
2021/01/28 11:56:37;;;;;;;3.42;1.73;;;7.50;99.90;;;;;;4939496;29;20047;-86
2021/01/28 11:59:04;;;;;;;4.10;1.60;;;7.60;99.90;;;;;;4939293;29;20111;-86
2021/01/28 12:01:31;;;;;;;3.55;1.50;;;7.70;99.90;;;;;;4956539;28;20442;-86
2021/01/28 12:03:58;;;;;;;3.25;1.48;;;7.70;99.90;;;;;;4937854;29;20055;-86
2021/01/28 12:06:25;;;;;;;4.00;1.70;;;7.70;99.90;;;;;;4938192;29;20056;-86
2021/01/28 12:08:52;;;;;;;3.67;1.45;;;7.50;99.90;;;;;;4937792;29;20434;-86
2021/01/28 12:11:19;;;;;;;5.30;1.63;;;7.70;99.90;;;;;;4937916;29;20083;-86
2021/01/28 12:13:45;;;;;;;3.95;1.42;;;7.70;99.90;;;;;;4938101;29;20115;-86
2021/01/28 12:16:14;;;;;;;3.30;1.60;;;7.90;99.90;;;;;;4937124;29;20134;-86
2021/01/28 12:18:40;;;;;;;3.63;1.20;;;8.00;99.90;;;;;;4924934;29;20051;-85
2021/01/28 12:21:07;;;;;;;3.55;1.40;;;7.90;99.90;;;;;;4938975;29;20134;-84
2021/01/28 12:23:34;;;;;;;2.72;1.20;;;8.00;99.90;;;;;;4939245;29;20070;-85
2021/01/28 12:26:00;;;;;;;2.63;1.05;;;8.10;99.90;;;;;;4938265;29;20055;-86
2021/01/28 12:28:27;;;;;;;2.53;1.02;;;8.20;99.90;;;;;;4942441;29;20055;-86
2021/01/28 12:30:53;;;;;;;2.72;0.98;;;8.20;99.90;;;;;;4929106;29;20062;-86
2021/01/28 12:33:21;;;;;;;2.97;1.25;;;8.30;99.90;;;;;;4959747;29;20119;-85
2021/01/28 12:35:48;;;;;;;2.67;1.08;;;8.30;99.90;;;;;;4941007;29;20060;-86
2021/01/28 12:38:14;;;;;;;2.83;0.90;;;8.40;99.90;;;;;;4937140;29;20697;-86
2021/01/28 12:40:41;;;;;;;1.98;0.80;;;8.40;99.90;;;;;;4936398;29;20082;-87
2021/01/28 12:43:08;;;;;;;2.70;0.70;;;8.50;99.90;;;;;;4936740;29;20465;-87
2021/01/28 12:45:35;;;;;;;2.22;0.80;;;8.60;99.90;;;;;;4936743;29;20138;-87
2021/01/28 12:48:03;;;;;;;2.67;0.80;;;8.70;99.90;;;;;;4922674;29;20078;-87
2021/01/28 12:50:30;;;;;;;1.60;0.70;;;8.70;99.90;;;;;;4955340;29;20059;-86
2021/01/28 12:52:57;;;;;;;1.48;0.60;;;8.80;99.90;;;;;;4955099;29;20166;-87
2021/01/28 12:55:24;;;;;;;1.17;0.52;;;9.00;99.90;;;;;;4955838;29;20135;-87
2021/01/28 12:57:50;;;;;;;1.52;0.60;;;9.10;99.90;;;;;;4955476;29;20102;-86
2021/01/28 13:00:21;;;;;;;1.98;0.60;;;9.00;99.90;;;;;;4955838;29;20074;-86
2021/01/28 13:02:48;;;;;;;2.50;0.60;;;9.20;99.90;;;;;;4954968;29;20058;-86
2021/01/28 13:05:15;;;;;;;1.42;0.52;;;9.20;99.90;;;;;;4938870;29;20051;-87
2021/01/28 13:07:42;;;;;;;1.52;0.70;;;9.30;99.90;;;;;;4954969;29;20139;-87
2021/01/28 13:10:10;;;;;;;1.08;0.45;;;9.40;99.90;;;;;;4955143;29;20142;-86
2021/01/28 13:12:37;;;;;;;1.75;0.60;;;9.50;99.90;;;;;;4938173;29;20047;-86
2021/01/28 13:15:08;;;;;;;1.83;0.68;;;9.50;99.90;;;;;;4955194;29;20043;-87
2021/01/28 13:17:34;;;;;;;2.63;0.60;;;9.70;99.90;;;;;;4954651;29;20122;-87
2021/01/28 13:20:01;;;;;;;1.48;0.50;;;9.70;99.90;;;;;;4959576;29;20138;-86
2021/01/28 13:22:27;;;;;;;2.30;0.80;;;9.70;99.90;;;;;;4955688;29;20099;-86